sensor_id;sensor_type;location;lat;lon;timestamp;P1;durP1;ratioP1;P2;durP2;ratioP2
78848;SDS011;68197;41.864;21.942;2023-02-28T00:00:02;19.88;;;13.73;;
78848;SDS011;68197;41.864;21.942;2023-02-28T00:02:39;20.98;;;13.45;;
78848;SDS011;68197;41.864;21.942;2023-02-28T00:05:06;20.65;;;13.98;;
78848;SDS011;68197;41.864;21.942;2023-02-28T00:07:32;22.63;;;14.20;;
78848;SDS011;68197;41.864;21.942;2023-02-28T00:09:59;19.63;;;12.35;;
78848;SDS011;68197;41.864;21.942;2023-02-28T00:12:25;18.88;;;11.07;;
78848;SDS011;68197;41.864;21.942;2023-02-28T00:14:51;21.75;;;13.55;;
78848;SDS011;68197;41.864;21.942;2023-02-28T00:17:18;20.52;;;13.55;;
78848;SDS011;68197;41.864;21.942;2023-02-28T00:19:48;21.30;;;15.13;;
78848;SDS011;68197;41.864;21.942;2023-02-28T00:22:18;21.13;;;13.50;;
78848;SDS011;68197;41.864;21.942;2023-02-28T00:24:45;21.00;;;13.52;;
78848;SDS011;68197;41.864;21.942;2023-02-28T00:27:12;22.98;;;14.77;;
78848;SDS011;68197;41.864;21.942;2023-02-28T00:29:38;19.17;;;12.82;;
78848;SDS011;68197;41.864;21.942;2023-02-28T00:32:04;20.00;;;12.48;;
78848;SDS011;68197;41.864;21.942;2023-02-28T00:34:30;19.83;;;12.38;;
78848;SDS011;68197;41.864;21.942;2023-02-28T00:37:03;20.90;;;13.63;;
78848;SDS011;68197;41.864;21.942;2023-02-28T00:39:29;22.23;;;13.20;;
78848;SDS011;68197;41.864;21.942;2023-02-28T00:41:55;21.70;;;14.38;;
78848;SDS011;68197;41.864;21.942;2023-02-28T00:44:21;21.25;;;13.82;;
78848;SDS011;68197;41.864;21.942;2023-02-28T00:46:47;21.48;;;13.65;;
78848;SDS011;68197;41.864;21.942;2023-02-28T00:49:13;23.35;;;13.07;;
78848;SDS011;68197;41.864;21.942;2023-02-28T00:51:40;22.38;;;13.70;;
78848;SDS011;68197;41.864;21.942;2023-02-28T00:54:06;21.30;;;13.18;;
78848;SDS011;68197;41.864;21.942;2023-02-28T00:56:32;19.98;;;12.88;;
78848;SDS011;68197;41.864;21.942;2023-02-28T00:58:58;19.25;;;12.63;;
78848;SDS011;68197;41.864;21.942;2023-02-28T01:01:24;18.27;;;12.95;;
78848;SDS011;68197;41.864;21.942;2023-02-28T01:03:50;22.35;;;13.48;;
78848;SDS011;68197;41.864;21.942;2023-02-28T01:06:16;20.90;;;13.35;;
78848;SDS011;68197;41.864;21.942;2023-02-28T01:08:42;21.02;;;13.93;;
78848;SDS011;68197;41.864;21.942;2023-02-28T01:11:09;22.85;;;13.63;;
78848;SDS011;68197;41.864;21.942;2023-02-28T01:13:36;18.30;;;10.73;;
78848;SDS011;68197;41.864;21.942;2023-02-28T01:16:02;20.23;;;13.40;;
78848;SDS011;68197;41.864;21.942;2023-02-28T01:18:28;18.75;;;11.80;;
78848;SDS011;68197;41.864;21.942;2023-02-28T01:20:55;18.67;;;12.35;;
78848;SDS011;68197;41.864;21.942;2023-02-28T01:23:22;18.58;;;12.07;;
78848;SDS011;68197;41.864;21.942;2023-02-28T01:25:49;17.92;;;12.20;;
78848;SDS011;68197;41.864;21.942;2023-02-28T01:28:15;18.83;;;11.63;;
78848;SDS011;68197;41.864;21.942;2023-02-28T01:30:41;19.20;;;12.13;;
78848;SDS011;68197;41.864;21.942;2023-02-28T01:33:08;18.92;;;11.27;;
78848;SDS011;68197;41.864;21.942;2023-02-28T01:35:34;16.67;;;10.80;;
78848;SDS011;68197;41.864;21.942;2023-02-28T01:38:01;18.52;;;12.43;;
78848;SDS011;68197;41.864;21.942;2023-02-28T01:40:27;21.52;;;11.85;;
78848;SDS011;68197;41.864;21.942;2023-02-28T01:42:53;19.30;;;12.60;;
78848;SDS011;68197;41.864;21.942;2023-02-28T01:45:27;18.98;;;12.40;;
78848;SDS011;68197;41.864;21.942;2023-02-28T01:48:00;18.27;;;12.55;;
78848;SDS011;68197;41.864;21.942;2023-02-28T01:50:28;18.42;;;10.75;;
78848;SDS011;68197;41.864;21.942;2023-02-28T01:52:56;18.27;;;12.23;;
78848;SDS011;68197;41.864;21.942;2023-02-28T01:55:24;19.75;;;12.85;;
78848;SDS011;68197;41.864;21.942;2023-02-28T01:57:54;18.75;;;11.77;;
78848;SDS011;68197;41.864;21.942;2023-02-28T02:00:22;19.63;;;11.27;;
78848;SDS011;68197;41.864;21.942;2023-02-28T02:02:50;17.80;;;13.32;;
78848;SDS011;68197;41.864;21.942;2023-02-28T02:05:21;21.70;;;13.00;;
78848;SDS011;68197;41.864;21.942;2023-02-28T02:07:48;19.38;;;12.00;;
78848;SDS011;68197;41.864;21.942;2023-02-28T02:18:04;20.80;;;12.00;;
78848;SDS011;68197;41.864;21.942;2023-02-28T02:20:46;21.20;;;13.32;;
78848;SDS011;68197;41.864;21.942;2023-02-28T02:33:59;18.58;;;11.73;;
78848;SDS011;68197;41.864;21.942;2023-02-28T02:36:27;18.50;;;11.18;;
78848;SDS011;68197;41.864;21.942;2023-02-28T02:39:02;19.75;;;11.80;;
78848;SDS011;68197;41.864;21.942;2023-02-28T02:41:40;16.63;;;9.18;;
78848;SDS011;68197;41.864;21.942;2023-02-28T02:46:38;20.20;;;12.98;;
78848;SDS011;68197;41.864;21.942;2023-02-28T02:49:06;19.75;;;12.80;;
78848;SDS011;68197;41.864;21.942;2023-02-28T02:51:34;20.30;;;12.38;;
78848;SDS011;68197;41.864;21.942;2023-02-28T02:56:33;19.77;;;12.30;;
78848;SDS011;68197;41.864;21.942;2023-02-28T03:01:27;20.48;;;12.02;;
78848;SDS011;68197;41.864;21.942;2023-02-28T03:03:55;18.25;;;11.88;;
78848;SDS011;68197;41.864;21.942;2023-02-28T03:06:22;19.45;;;12.85;;
78848;SDS011;68197;41.864;21.942;2023-02-28T03:08:48;24.63;;;15.32;;
78848;SDS011;68197;41.864;21.942;2023-02-28T03:11:15;19.42;;;11.82;;
78848;SDS011;68197;41.864;21.942;2023-02-28T03:21:22;18.88;;;13.43;;
78848;SDS011;68197;41.864;21.942;2023-02-28T03:24:04;21.23;;;13.07;;
78848;SDS011;68197;41.864;21.942;2023-02-28T03:26:34;21.08;;;12.80;;
78848;SDS011;68197;41.864;21.942;2023-02-28T03:34:06;21.98;;;12.55;;
78848;SDS011;68197;41.864;21.942;2023-02-28T03:36:36;23.75;;;13.30;;
78848;SDS011;68197;41.864;21.942;2023-02-28T03:39:09;21.02;;;13.40;;
78848;SDS011;68197;41.864;21.942;2023-02-28T03:44:41;19.92;;;12.65;;
78848;SDS011;68197;41.864;21.942;2023-02-28T03:47:10;22.98;;;14.20;;
78848;SDS011;68197;41.864;21.942;2023-02-28T03:49:40;24.63;;;14.23;;
78848;SDS011;68197;41.864;21.942;2023-02-28T03:52:09;20.08;;;12.15;;
78848;SDS011;68197;41.864;21.942;2023-02-28T03:54:42;20.65;;;13.15;;
78848;SDS011;68197;41.864;21.942;2023-02-28T03:57:21;20.52;;;13.02;;
78848;SDS011;68197;41.864;21.942;2023-02-28T03:59:51;21.88;;;12.82;;
78848;SDS011;68197;41.864;21.942;2023-02-28T04:02:20;19.35;;;11.38;;
78848;SDS011;68197;41.864;21.942;2023-02-28T04:04:46;18.95;;;11.60;;
78848;SDS011;68197;41.864;21.942;2023-02-28T04:07:13;18.70;;;10.68;;
78848;SDS011;68197;41.864;21.942;2023-02-28T04:09:40;17.08;;;11.50;;
78848;SDS011;68197;41.864;21.942;2023-02-28T04:12:06;15.77;;;10.80;;
78848;SDS011;68197;41.864;21.942;2023-02-28T04:14:32;16.73;;;9.63;;
78848;SDS011;68197;41.864;21.942;2023-02-28T04:16:58;16.33;;;11.80;;
78848;SDS011;68197;41.864;21.942;2023-02-28T04:19:24;18.60;;;12.15;;
78848;SDS011;68197;41.864;21.942;2023-02-28T04:21:51;16.70;;;11.75;;
78848;SDS011;68197;41.864;21.942;2023-02-28T04:24:22;15.40;;;11.45;;
78848;SDS011;68197;41.864;21.942;2023-02-28T04:26:49;16.63;;;11.45;;
78848;SDS011;68197;41.864;21.942;2023-02-28T04:29:20;14.77;;;10.93;;
78848;SDS011;68197;41.864;21.942;2023-02-28T04:31:46;15.32;;;12.05;;
78848;SDS011;68197;41.864;21.942;2023-02-28T04:34:12;16.10;;;11.02;;
78848;SDS011;68197;41.864;21.942;2023-02-28T04:36:38;15.00;;;11.48;;
78848;SDS011;68197;41.864;21.942;2023-02-28T04:39:04;15.80;;;10.93;;
78848;SDS011;68197;41.864;21.942;2023-02-28T04:41:31;25.70;;;18.65;;
78848;SDS011;68197;41.864;21.942;2023-02-28T04:43:57;16.33;;;11.60;;
78848;SDS011;68197;41.864;21.942;2023-02-28T04:46:23;17.92;;;12.13;;
78848;SDS011;68197;41.864;21.942;2023-02-28T04:48:49;21.00;;;14.27;;
78848;SDS011;68197;41.864;21.942;2023-02-28T04:51:16;17.48;;;11.98;;
78848;SDS011;68197;41.864;21.942;2023-02-28T04:53:43;20.35;;;11.00;;
78848;SDS011;68197;41.864;21.942;2023-02-28T04:56:13;20.33;;;12.55;;
78848;SDS011;68197;41.864;21.942;2023-02-28T04:58:42;21.52;;;13.77;;
78848;SDS011;68197;41.864;21.942;2023-02-28T05:01:19;18.60;;;12.75;;
78848;SDS011;68197;41.864;21.942;2023-02-28T05:03:45;24.02;;;12.88;;
78848;SDS011;68197;41.864;21.942;2023-02-28T05:06:12;20.27;;;14.05;;
78848;SDS011;68197;41.864;21.942;2023-02-28T05:08:38;18.63;;;11.13;;
78848;SDS011;68197;41.864;21.942;2023-02-28T05:11:06;17.27;;;11.85;;
78848;SDS011;68197;41.864;21.942;2023-02-28T05:13:33;17.17;;;11.90;;
78848;SDS011;68197;41.864;21.942;2023-02-28T05:16:00;18.00;;;12.43;;
78848;SDS011;68197;41.864;21.942;2023-02-28T05:18:26;20.02;;;13.20;;
78848;SDS011;68197;41.864;21.942;2023-02-28T05:20:53;20.02;;;12.30;;
78848;SDS011;68197;41.864;21.942;2023-02-28T05:23:19;20.92;;;13.07;;
78848;SDS011;68197;41.864;21.942;2023-02-28T05:25:47;24.50;;;15.30;;
78848;SDS011;68197;41.864;21.942;2023-02-28T05:28:13;21.20;;;13.90;;
78848;SDS011;68197;41.864;21.942;2023-02-28T05:30:39;21.80;;;14.52;;
78848;SDS011;68197;41.864;21.942;2023-02-28T05:33:06;20.50;;;12.20;;
78848;SDS011;68197;41.864;21.942;2023-02-28T05:35:32;19.50;;;13.27;;
78848;SDS011;68197;41.864;21.942;2023-02-28T05:37:58;21.65;;;14.52;;
78848;SDS011;68197;41.864;21.942;2023-02-28T05:40:24;20.65;;;14.15;;
78848;SDS011;68197;41.864;21.942;2023-02-28T05:42:50;19.45;;;11.93;;
78848;SDS011;68197;41.864;21.942;2023-02-28T05:45:16;22.40;;;14.18;;
78848;SDS011;68197;41.864;21.942;2023-02-28T05:47:42;25.17;;;15.75;;
78848;SDS011;68197;41.864;21.942;2023-02-28T05:50:09;22.83;;;15.70;;
78848;SDS011;68197;41.864;21.942;2023-02-28T05:52:35;24.20;;;14.60;;
78848;SDS011;68197;41.864;21.942;2023-02-28T05:55:02;22.48;;;13.02;;
78848;SDS011;68197;41.864;21.942;2023-02-28T05:57:29;21.73;;;15.65;;
78848;SDS011;68197;41.864;21.942;2023-02-28T05:59:55;26.05;;;15.18;;
78848;SDS011;68197;41.864;21.942;2023-02-28T06:02:21;21.23;;;13.38;;
78848;SDS011;68197;41.864;21.942;2023-02-28T06:04:47;25.38;;;14.95;;
78848;SDS011;68197;41.864;21.942;2023-02-28T06:07:13;27.05;;;15.60;;
78848;SDS011;68197;41.864;21.942;2023-02-28T06:09:40;30.50;;;16.35;;
78848;SDS011;68197;41.864;21.942;2023-02-28T06:12:06;27.35;;;15.82;;
78848;SDS011;68197;41.864;21.942;2023-02-28T06:14:34;34.90;;;18.77;;
78848;SDS011;68197;41.864;21.942;2023-02-28T06:17:01;30.40;;;17.67;;
78848;SDS011;68197;41.864;21.942;2023-02-28T06:19:27;32.63;;;19.80;;
78848;SDS011;68197;41.864;21.942;2023-02-28T06:21:55;28.33;;;17.33;;
78848;SDS011;68197;41.864;21.942;2023-02-28T06:24:22;28.67;;;14.85;;
78848;SDS011;68197;41.864;21.942;2023-02-28T06:26:49;25.73;;;16.35;;
78848;SDS011;68197;41.864;21.942;2023-02-28T06:29:15;32.53;;;19.98;;
78848;SDS011;68197;41.864;21.942;2023-02-28T06:31:43;31.05;;;19.52;;
78848;SDS011;68197;41.864;21.942;2023-02-28T06:34:10;32.28;;;19.45;;
78848;SDS011;68197;41.864;21.942;2023-02-28T06:36:37;35.03;;;21.60;;
78848;SDS011;68197;41.864;21.942;2023-02-28T06:39:04;33.65;;;22.45;;
78848;SDS011;68197;41.864;21.942;2023-02-28T06:41:30;33.75;;;21.42;;
78848;SDS011;68197;41.864;21.942;2023-02-28T06:43:56;32.95;;;19.85;;
78848;SDS011;68197;41.864;21.942;2023-02-28T06:46:22;33.95;;;20.35;;
78848;SDS011;68197;41.864;21.942;2023-02-28T06:48:49;29.10;;;17.52;;
78848;SDS011;68197;41.864;21.942;2023-02-28T06:51:16;36.60;;;19.80;;
78848;SDS011;68197;41.864;21.942;2023-02-28T06:53:42;47.10;;;25.65;;
78848;SDS011;68197;41.864;21.942;2023-02-28T06:56:10;123.28;;;66.78;;
78848;SDS011;68197;41.864;21.942;2023-02-28T06:58:36;92.72;;;41.38;;
78848;SDS011;68197;41.864;21.942;2023-02-28T07:01:04;84.15;;;41.03;;
78848;SDS011;68197;41.864;21.942;2023-02-28T07:03:30;165.02;;;82.88;;
78848;SDS011;68197;41.864;21.942;2023-02-28T07:05:57;26.15;;;17.17;;
78848;SDS011;68197;41.864;21.942;2023-02-28T07:08:23;34.40;;;19.60;;
78848;SDS011;68197;41.864;21.942;2023-02-28T07:10:56;24.23;;;15.27;;
78848;SDS011;68197;41.864;21.942;2023-02-28T07:13:22;39.45;;;23.08;;
78848;SDS011;68197;41.864;21.942;2023-02-28T07:15:52;47.05;;;27.83;;
78848;SDS011;68197;41.864;21.942;2023-02-28T07:18:19;27.02;;;16.33;;
78848;SDS011;68197;41.864;21.942;2023-02-28T07:20:45;32.33;;;20.73;;
78848;SDS011;68197;41.864;21.942;2023-02-28T07:23:11;26.17;;;16.90;;
78848;SDS011;68197;41.864;21.942;2023-02-28T07:25:37;34.72;;;20.10;;
78848;SDS011;68197;41.864;21.942;2023-02-28T07:28:04;45.38;;;26.52;;
78848;SDS011;68197;41.864;21.942;2023-02-28T07:30:30;39.75;;;25.05;;
78848;SDS011;68197;41.864;21.942;2023-02-28T07:32:56;30.35;;;20.63;;
78848;SDS011;68197;41.864;21.942;2023-02-28T07:35:22;31.95;;;20.58;;
78848;SDS011;68197;41.864;21.942;2023-02-28T07:37:49;28.50;;;14.25;;
78848;SDS011;68197;41.864;21.942;2023-02-28T07:40:15;26.13;;;15.40;;
78848;SDS011;68197;41.864;21.942;2023-02-28T07:42:42;32.20;;;20.77;;
78848;SDS011;68197;41.864;21.942;2023-02-28T07:45:09;27.08;;;17.95;;
78848;SDS011;68197;41.864;21.942;2023-02-28T07:47:39;29.80;;;19.38;;
78848;SDS011;68197;41.864;21.942;2023-02-28T07:50:05;47.33;;;30.83;;
78848;SDS011;68197;41.864;21.942;2023-02-28T07:52:32;26.70;;;16.27;;
78848;SDS011;68197;41.864;21.942;2023-02-28T07:54:58;35.60;;;20.17;;
78848;SDS011;68197;41.864;21.942;2023-02-28T07:57:24;31.70;;;19.48;;
78848;SDS011;68197;41.864;21.942;2023-02-28T07:59:51;26.50;;;15.88;;
78848;SDS011;68197;41.864;21.942;2023-02-28T08:02:17;30.92;;;16.73;;
78848;SDS011;68197;41.864;21.942;2023-02-28T08:04:44;30.98;;;19.52;;
78848;SDS011;68197;41.864;21.942;2023-02-28T08:07:12;25.13;;;15.43;;
78848;SDS011;68197;41.864;21.942;2023-02-28T08:09:39;27.10;;;16.45;;
78848;SDS011;68197;41.864;21.942;2023-02-28T08:12:05;37.35;;;21.63;;
78848;SDS011;68197;41.864;21.942;2023-02-28T08:14:32;30.83;;;16.92;;
78848;SDS011;68197;41.864;21.942;2023-02-28T08:16:58;28.85;;;16.48;;
78848;SDS011;68197;41.864;21.942;2023-02-28T08:19:24;29.60;;;16.13;;
78848;SDS011;68197;41.864;21.942;2023-02-28T08:21:51;30.10;;;19.27;;
78848;SDS011;68197;41.864;21.942;2023-02-28T08:24:17;31.77;;;19.50;;
78848;SDS011;68197;41.864;21.942;2023-02-28T08:26:43;33.33;;;17.05;;
78848;SDS011;68197;41.864;21.942;2023-02-28T08:29:09;32.85;;;17.75;;
78848;SDS011;68197;41.864;21.942;2023-02-28T08:31:35;35.97;;;18.70;;
78848;SDS011;68197;41.864;21.942;2023-02-28T08:34:05;34.85;;;18.05;;
78848;SDS011;68197;41.864;21.942;2023-02-28T08:36:32;37.33;;;20.83;;
78848;SDS011;68197;41.864;21.942;2023-02-28T08:38:58;33.08;;;20.88;;
78848;SDS011;68197;41.864;21.942;2023-02-28T08:41:25;33.58;;;21.40;;
78848;SDS011;68197;41.864;21.942;2023-02-28T08:43:51;25.85;;;16.00;;
78848;SDS011;68197;41.864;21.942;2023-02-28T08:46:18;27.48;;;17.83;;
78848;SDS011;68197;41.864;21.942;2023-02-28T08:48:45;35.95;;;23.10;;
78848;SDS011;68197;41.864;21.942;2023-02-28T08:51:15;33.45;;;20.10;;
78848;SDS011;68197;41.864;21.942;2023-02-28T08:53:46;40.67;;;21.80;;
78848;SDS011;68197;41.864;21.942;2023-02-28T08:56:15;31.35;;;14.68;;
78848;SDS011;68197;41.864;21.942;2023-02-28T08:58:45;24.08;;;15.43;;
78848;SDS011;68197;41.864;21.942;2023-02-28T09:01:12;29.23;;;16.60;;
78848;SDS011;68197;41.864;21.942;2023-02-28T09:03:39;32.53;;;18.80;;
78848;SDS011;68197;41.864;21.942;2023-02-28T09:06:06;35.60;;;21.25;;
78848;SDS011;68197;41.864;21.942;2023-02-28T09:08:33;33.10;;;17.63;;
78848;SDS011;68197;41.864;21.942;2023-02-28T09:10:59;36.67;;;18.33;;
78848;SDS011;68197;41.864;21.942;2023-02-28T09:13:28;36.92;;;17.58;;
78848;SDS011;68197;41.864;21.942;2023-02-28T09:15:57;33.70;;;18.58;;
78848;SDS011;68197;41.864;21.942;2023-02-28T09:18:30;36.53;;;18.90;;
78848;SDS011;68197;41.864;21.942;2023-02-28T09:20:59;35.47;;;19.50;;
78848;SDS011;68197;41.864;21.942;2023-02-28T09:23:28;33.22;;;20.05;;
78848;SDS011;68197;41.864;21.942;2023-02-28T09:25:54;41.17;;;18.90;;
78848;SDS011;68197;41.864;21.942;2023-02-28T09:28:22;39.75;;;19.27;;
78848;SDS011;68197;41.864;21.942;2023-02-28T09:30:52;33.72;;;17.85;;
78848;SDS011;68197;41.864;21.942;2023-02-28T09:33:19;36.33;;;21.33;;
78848;SDS011;68197;41.864;21.942;2023-02-28T09:35:46;39.72;;;20.42;;
78848;SDS011;68197;41.864;21.942;2023-02-28T09:38:12;36.60;;;20.63;;
78848;SDS011;68197;41.864;21.942;2023-02-28T09:40:50;35.35;;;19.00;;
78848;SDS011;68197;41.864;21.942;2023-02-28T09:43:17;43.47;;;20.17;;
78848;SDS011;68197;41.864;21.942;2023-02-28T09:48:21;38.15;;;19.00;;
78848;SDS011;68197;41.864;21.942;2023-02-28T09:50:55;34.78;;;17.30;;
78848;SDS011;68197;41.864;21.942;2023-02-28T09:53:27;39.85;;;19.48;;
78848;SDS011;68197;41.864;21.942;2023-02-28T09:55:58;37.03;;;20.92;;
78848;SDS011;68197;41.864;21.942;2023-02-28T10:04:08;39.88;;;21.38;;
78848;SDS011;68197;41.864;21.942;2023-02-28T10:06:57;36.20;;;20.85;;
78848;SDS011;68197;41.864;21.942;2023-02-28T10:09:26;32.42;;;19.10;;
78848;SDS011;68197;41.864;21.942;2023-02-28T10:12:13;30.88;;;16.52;;
78848;SDS011;68197;41.864;21.942;2023-02-28T10:15:07;37.17;;;18.48;;
78848;SDS011;68197;41.864;21.942;2023-02-28T10:18:02;34.10;;;16.98;;
78848;SDS011;68197;41.864;21.942;2023-02-28T10:20:37;31.00;;;16.55;;
78848;SDS011;68197;41.864;21.942;2023-02-28T10:38:48;34.78;;;20.92;;
78848;SDS011;68197;41.864;21.942;2023-02-28T10:41:29;44.90;;;24.30;;
78848;SDS011;68197;41.864;21.942;2023-02-28T10:46:41;36.72;;;22.60;;
78848;SDS011;68197;41.864;21.942;2023-02-28T10:49:12;37.55;;;21.52;;
78848;SDS011;68197;41.864;21.942;2023-02-28T10:51:39;42.08;;;23.33;;
78848;SDS011;68197;41.864;21.942;2023-02-28T10:54:19;38.50;;;21.80;;
78848;SDS011;68197;41.864;21.942;2023-02-28T11:02:31;39.58;;;21.38;;
78848;SDS011;68197;41.864;21.942;2023-02-28T11:04:58;38.42;;;23.67;;
78848;SDS011;68197;41.864;21.942;2023-02-28T11:07:25;38.97;;;23.77;;
78848;SDS011;68197;41.864;21.942;2023-02-28T11:09:54;43.78;;;26.15;;
78848;SDS011;68197;41.864;21.942;2023-02-28T11:14:54;37.92;;;23.10;;
78848;SDS011;68197;41.864;21.942;2023-02-28T11:17:26;44.65;;;24.08;;
78848;SDS011;68197;41.864;21.942;2023-02-28T11:19:55;39.15;;;21.70;;
78848;SDS011;68197;41.864;21.942;2023-02-28T11:22:27;40.10;;;20.17;;
78848;SDS011;68197;41.864;21.942;2023-02-28T11:24:57;33.95;;;18.92;;
78848;SDS011;68197;41.864;21.942;2023-02-28T11:32:57;40.78;;;20.58;;
78848;SDS011;68197;41.864;21.942;2023-02-28T11:35:36;39.70;;;20.08;;
78848;SDS011;68197;41.864;21.942;2023-02-28T11:38:09;33.83;;;19.48;;
78848;SDS011;68197;41.864;21.942;2023-02-28T11:55:20;31.15;;;18.52;;
78848;SDS011;68197;41.864;21.942;2023-02-28T11:57:57;36.40;;;20.38;;
78848;SDS011;68197;41.864;21.942;2023-02-28T12:06:43;42.58;;;22.38;;
78848;SDS011;68197;41.864;21.942;2023-02-28T12:20:34;36.30;;;18.10;;
78848;SDS011;68197;41.864;21.942;2023-02-28T12:28:20;35.35;;;17.80;;
78848;SDS011;68197;41.864;21.942;2023-02-28T12:30:58;31.38;;;17.25;;
78848;SDS011;68197;41.864;21.942;2023-02-28T12:33:27;43.10;;;24.77;;
78848;SDS011;68197;41.864;21.942;2023-02-28T12:35:57;32.45;;;16.38;;
78848;SDS011;68197;41.864;21.942;2023-02-28T12:43:51;29.55;;;11.85;;
78848;SDS011;68197;41.864;21.942;2023-02-28T12:46:22;39.65;;;18.35;;
78848;SDS011;68197;41.864;21.942;2023-02-28T12:48:53;29.98;;;14.18;;
78848;SDS011;68197;41.864;21.942;2023-02-28T12:51:21;40.08;;;16.10;;
78848;SDS011;68197;41.864;21.942;2023-02-28T12:58:57;40.50;;;18.73;;
78848;SDS011;68197;41.864;21.942;2023-02-28T13:04:18;36.63;;;19.77;;
78848;SDS011;68197;41.864;21.942;2023-02-28T13:09:19;28.17;;;13.50;;
78848;SDS011;68197;41.864;21.942;2023-02-28T13:11:50;37.65;;;20.70;;
78848;SDS011;68197;41.864;21.942;2023-02-28T13:14:20;43.40;;;21.75;;
78848;SDS011;68197;41.864;21.942;2023-02-28T13:19:20;39.50;;;20.05;;
78848;SDS011;68197;41.864;21.942;2023-02-28T13:21:48;34.28;;;15.82;;
78848;SDS011;68197;41.864;21.942;2023-02-28T13:34:32;31.38;;;17.73;;
78848;SDS011;68197;41.864;21.942;2023-02-28T13:47:22;36.70;;;19.38;;
78848;SDS011;68197;41.864;21.942;2023-02-28T13:52:19;36.88;;;19.70;;
78848;SDS011;68197;41.864;21.942;2023-02-28T13:57:28;47.33;;;24.30;;
78848;SDS011;68197;41.864;21.942;2023-02-28T14:05:13;33.03;;;19.95;;
78848;SDS011;68197;41.864;21.942;2023-02-28T14:07:43;36.08;;;17.80;;
78848;SDS011;68197;41.864;21.942;2023-02-28T14:10:19;33.55;;;20.73;;
78848;SDS011;68197;41.864;21.942;2023-02-28T14:13:01;51.42;;;27.98;;
78848;SDS011;68197;41.864;21.942;2023-02-28T14:17:56;47.17;;;20.88;;
78848;SDS011;68197;41.864;21.942;2023-02-28T14:20:26;40.20;;;20.05;;
78848;SDS011;68197;41.864;21.942;2023-02-28T14:25:33;45.33;;;18.92;;
78848;SDS011;68197;41.864;21.942;2023-02-28T14:33:13;45.45;;;22.25;;
78848;SDS011;68197;41.864;21.942;2023-02-28T14:35:51;49.08;;;26.27;;
78848;SDS011;68197;41.864;21.942;2023-02-28T14:38:23;56.03;;;27.77;;
78848;SDS011;68197;41.864;21.942;2023-02-28T14:40:51;42.05;;;25.60;;
78848;SDS011;68197;41.864;21.942;2023-02-28T14:43:19;45.47;;;23.33;;
78848;SDS011;68197;41.864;21.942;2023-02-28T14:45:48;43.35;;;22.65;;
78848;SDS011;68197;41.864;21.942;2023-02-28T14:48:15;42.40;;;22.30;;
78848;SDS011;68197;41.864;21.942;2023-02-28T14:50:42;37.72;;;21.30;;
78848;SDS011;68197;41.864;21.942;2023-02-28T14:53:17;41.85;;;23.30;;
78848;SDS011;68197;41.864;21.942;2023-02-28T14:55:45;48.67;;;27.60;;
78848;SDS011;68197;41.864;21.942;2023-02-28T14:58:28;68.72;;;35.67;;
78848;SDS011;68197;41.864;21.942;2023-02-28T15:00:56;58.00;;;30.38;;
78848;SDS011;68197;41.864;21.942;2023-02-28T15:05:56;56.45;;;32.10;;
78848;SDS011;68197;41.864;21.942;2023-02-28T15:08:23;60.05;;;32.90;;
78848;SDS011;68197;41.864;21.942;2023-02-28T15:13:18;71.13;;;37.55;;
78848;SDS011;68197;41.864;21.942;2023-02-28T15:20:46;55.17;;;32.97;;
78848;SDS011;68197;41.864;21.942;2023-02-28T15:23:12;61.15;;;36.22;;
78848;SDS011;68197;41.864;21.942;2023-02-28T15:25:39;69.90;;;45.35;;
78848;SDS011;68197;41.864;21.942;2023-02-28T15:28:09;69.80;;;42.58;;
78848;SDS011;68197;41.864;21.942;2023-02-28T15:30:37;71.20;;;40.63;;
78848;SDS011;68197;41.864;21.942;2023-02-28T15:33:18;58.15;;;35.95;;
78848;SDS011;68197;41.864;21.942;2023-02-28T15:35:44;64.28;;;41.80;;
78848;SDS011;68197;41.864;21.942;2023-02-28T15:40:50;64.50;;;41.22;;
78848;SDS011;68197;41.864;21.942;2023-02-28T15:43:33;62.13;;;40.70;;
78848;SDS011;68197;41.864;21.942;2023-02-28T15:46:00;75.35;;;45.45;;
78848;SDS011;68197;41.864;21.942;2023-02-28T15:48:34;56.53;;;37.25;;
78848;SDS011;68197;41.864;21.942;2023-02-28T15:53:29;50.90;;;30.48;;
78848;SDS011;68197;41.864;21.942;2023-02-28T15:55:58;53.45;;;28.67;;
78848;SDS011;68197;41.864;21.942;2023-02-28T15:58:25;59.67;;;37.05;;
78848;SDS011;68197;41.864;21.942;2023-02-28T16:01:05;77.97;;;46.92;;
78848;SDS011;68197;41.864;21.942;2023-02-28T16:03:39;82.07;;;47.78;;
78848;SDS011;68197;41.864;21.942;2023-02-28T16:06:21;62.60;;;42.17;;
78848;SDS011;68197;41.864;21.942;2023-02-28T16:08:49;84.93;;;55.35;;
78848;SDS011;68197;41.864;21.942;2023-02-28T16:11:16;62.47;;;43.40;;
78848;SDS011;68197;41.864;21.942;2023-02-28T16:13:45;62.55;;;40.35;;
78848;SDS011;68197;41.864;21.942;2023-02-28T16:16:15;53.80;;;35.42;;
78848;SDS011;68197;41.864;21.942;2023-02-28T16:18:41;77.25;;;50.88;;
78848;SDS011;68197;41.864;21.942;2023-02-28T16:21:26;69.85;;;45.55;;
78848;SDS011;68197;41.864;21.942;2023-02-28T16:24:01;73.13;;;50.30;;
78848;SDS011;68197;41.864;21.942;2023-02-28T16:26:30;99.85;;;59.03;;
78848;SDS011;68197;41.864;21.942;2023-02-28T16:28:59;91.45;;;57.95;;
78848;SDS011;68197;41.864;21.942;2023-02-28T16:31:28;89.15;;;56.25;;
78848;SDS011;68197;41.864;21.942;2023-02-28T16:34:04;79.93;;;51.13;;
78848;SDS011;68197;41.864;21.942;2023-02-28T16:36:46;64.18;;;43.53;;
78848;SDS011;68197;41.864;21.942;2023-02-28T16:39:18;56.42;;;31.98;;
78848;SDS011;68197;41.864;21.942;2023-02-28T16:41:48;62.58;;;37.90;;
78848;SDS011;68197;41.864;21.942;2023-02-28T16:44:37;51.97;;;33.88;;
78848;SDS011;68197;41.864;21.942;2023-02-28T16:47:25;62.55;;;36.30;;
78848;SDS011;68197;41.864;21.942;2023-02-28T16:50:14;47.65;;;28.38;;
78848;SDS011;68197;41.864;21.942;2023-02-28T16:52:51;51.80;;;32.92;;
78848;SDS011;68197;41.864;21.942;2023-02-28T16:55:21;77.05;;;45.50;;
78848;SDS011;68197;41.864;21.942;2023-02-28T16:58:11;81.00;;;52.25;;
78848;SDS011;68197;41.864;21.942;2023-02-28T17:03:19;89.95;;;58.75;;
78848;SDS011;68197;41.864;21.942;2023-02-28T17:05:46;106.35;;;65.22;;
78848;SDS011;68197;41.864;21.942;2023-02-28T17:08:15;138.23;;;87.25;;
78848;SDS011;68197;41.864;21.942;2023-02-28T17:10:44;165.18;;;110.43;;
78848;SDS011;68197;41.864;21.942;2023-02-28T17:13:10;149.20;;;99.47;;
78848;SDS011;68197;41.864;21.942;2023-02-28T17:15:39;161.00;;;108.80;;
78848;SDS011;68197;41.864;21.942;2023-02-28T17:18:10;221.43;;;141.02;;
78848;SDS011;68197;41.864;21.942;2023-02-28T17:20:44;255.98;;;150.52;;
78848;SDS011;68197;41.864;21.942;2023-02-28T17:23:12;183.88;;;121.07;;
78848;SDS011;68197;41.864;21.942;2023-02-28T17:28:38;139.88;;;97.90;;
78848;SDS011;68197;41.864;21.942;2023-02-28T17:31:11;201.75;;;125.85;;
78848;SDS011;68197;41.864;21.942;2023-02-28T17:33:43;162.73;;;103.97;;
78848;SDS011;68197;41.864;21.942;2023-02-28T17:36:30;125.57;;;85.20;;
78848;SDS011;68197;41.864;21.942;2023-02-28T17:38:58;88.25;;;58.85;;